Time;durP1;ratioP1;P1;durP2;ratioP2;P2;SDS_P1;SDS_P2;PMS_P1;PMS_P2;Temp;Humidity;BMP_temperature;BMP_pressure;BME280_temperature;BME280_humidity;BME280_pressure;Samples;Min_cycle;Max_cycle;Signal;HPM_P1;HPM_P2
2021/09/20 00:00:13;;;;;;;7.65;4.28;;;14.90;99.90;;;;;;4173216;28;20491;-72
2021/09/20 00:02:14;;;;;;;5.93;4.13;;;15.00;99.90;;;;;;4173881;28;20029;-72
2021/09/20 00:04:15;;;;;;;6.90;4.28;;;15.00;99.90;;;;;;4175168;28;20536;-72
2021/09/20 00:06:16;;;;;;;6.22;4.53;;;15.00;99.90;;;;;;4175486;28;20056;-72
2021/09/20 00:08:16;;;;;;;6.25;4.15;;;15.00;99.90;;;;;;4174128;28;20857;-72
2021/09/20 00:10:18;;;;;;;4.82;4.00;;;15.10;99.90;;;;;;4175491;28;20021;-72
2021/09/20 00:12:18;;;;;;;5.85;4.18;;;15.10;99.90;;;;;;4175457;28;20028;-72
2021/09/20 00:14:19;;;;;;;6.38;3.72;;;15.10;99.90;;;;;;4175525;28;20444;-72
2021/09/20 00:16:20;;;;;;;7.13;4.30;;;15.10;99.90;;;;;;4175972;28;20083;-72
2021/09/20 00:18:20;;;;;;;7.82;4.50;;;15.10;99.90;;;;;;4171858;28;20476;-72
2021/09/20 00:20:21;;;;;;;7.80;4.57;;;15.10;99.90;;;;;;4174317;28;20088;-72
2021/09/20 00:22:21;;;;;;;8.25;4.30;;;15.20;99.90;;;;;;4175315;28;20033;-72
2021/09/20 00:24:22;;;;;;;5.20;3.70;;;15.20;99.90;;;;;;4174190;28;20037;-72
2021/09/20 00:26:23;;;;;;;6.57;4.15;;;15.20;99.90;;;;;;4172840;28;20025;-73
2021/09/20 00:28:24;;;;;;;4.95;3.90;;;15.20;99.90;;;;;;4174459;28;20048;-72
2021/09/20 00:30:25;;;;;;;6.63;4.10;;;15.10;99.90;;;;;;4174669;28;20575;-72
2021/09/20 00:32:25;;;;;;;5.05;3.80;;;15.20;99.90;;;;;;4172795;28;20044;-72
2021/09/20 00:34:26;;;;;;;5.18;3.97;;;15.20;99.90;;;;;;4175122;28;20504;-72
2021/09/20 00:36:27;;;;;;;6.07;3.95;;;15.20;99.90;;;;;;4174674;28;20483;-73
2021/09/20 00:38:27;;;;;;;6.82;4.38;;;15.20;99.90;;;;;;4170905;28;20033;-72
2021/09/20 00:40:28;;;;;;;6.63;4.20;;;15.10;99.90;;;;;;4175618;28;20113;-72
2021/09/20 00:42:28;;;;;;;4.53;3.40;;;15.10;99.90;;;;;;4174419;28;20504;-72
2021/09/20 00:44:29;;;;;;;6.40;3.67;;;15.20;99.90;;;;;;4172250;28;20032;-72
2021/09/20 00:46:29;;;;;;;6.13;4.10;;;15.20;99.90;;;;;;4174482;28;20096;-72
2021/09/20 00:48:30;;;;;;;6.95;4.13;;;15.10;99.90;;;;;;4175329;28;20687;-72
2021/09/20 00:50:31;;;;;;;5.20;3.78;;;15.20;99.90;;;;;;4173154;28;20047;-72
2021/09/20 00:52:31;;;;;;;4.20;3.63;;;15.10;99.90;;;;;;4174749;28;20081;-72
2021/09/20 00:54:32;;;;;;;7.32;4.38;;;15.10;99.90;;;;;;4173885;28;20545;-72
2021/09/20 00:56:33;;;;;;;7.15;4.38;;;15.10;99.90;;;;;;4174127;28;20052;-72
2021/09/20 00:58:34;;;;;;;5.63;4.30;;;15.10;99.90;;;;;;4153976;28;20469;-72
2021/09/20 01:00:35;;;;;;;4.72;3.75;;;15.10;99.90;;;;;;4174131;28;20044;-72
2021/09/20 01:02:36;;;;;;;7.10;4.50;;;15.10;99.90;;;;;;4174442;28;20040;-72
2021/09/20 01:04:37;;;;;;;4.60;3.60;;;15.10;99.90;;;;;;4174355;28;20480;-72
2021/09/20 01:06:37;;;;;;;5.28;3.72;;;15.10;99.90;;;;;;4172761;28;20049;-72
2021/09/20 01:08:38;;;;;;;4.60;4.07;;;15.10;99.90;;;;;;4174709;28;20059;-72
2021/09/20 01:10:38;;;;;;;4.65;3.80;;;15.10;99.90;;;;;;4156530;28;20046;-72
2021/09/20 01:12:39;;;;;;;4.55;3.83;;;15.10;99.90;;;;;;4170953;28;20123;-72
2021/09/20 01:14:39;;;;;;;7.00;4.25;;;15.10;99.90;;;;;;4173944;28;20079;-72
2021/09/20 01:16:40;;;;;;;4.97;4.22;;;15.10;99.90;;;;;;4174311;28;20570;-73
2021/09/20 01:18:41;;;;;;;5.53;3.95;;;15.10;99.90;;;;;;4169725;28;20040;-73
2021/09/20 01:20:41;;;;;;;6.78;4.40;;;15.00;99.90;;;;;;4171049;28;20063;-72
2021/09/20 01:22:44;;;;;;;5.15;4.10;;;15.00;99.90;;;;;;4174810;28;20384;-72
2021/09/20 01:24:46;;;;;;;4.82;3.63;;;15.00;99.90;;;;;;4171854;28;20489;-73
2021/09/20 01:26:47;;;;;;;6.07;4.13;;;15.00;99.90;;;;;;4174243;28;20044;-72
2021/09/20 01:28:47;;;;;;;5.05;4.10;;;15.00;99.90;;;;;;4173292;28;20025;-73
2021/09/20 01:30:48;;;;;;;6.13;4.47;;;15.00;99.90;;;;;;4156211;28;20026;-72
2021/09/20 01:33:23;;;;;;;6.28;4.13;;;15.00;99.90;;;;;;4178511;28;20040;-72
2021/09/20 01:35:25;;;;;;;5.78;4.03;;;14.90;99.90;;;;;;4177241;28;20024;-72
2021/09/20 01:37:26;;;;;;;7.32;4.80;;;14.90;99.90;;;;;;4188219;28;20549;-72
2021/09/20 01:39:30;;;;;;;6.50;4.70;;;14.90;99.90;;;;;;4177762;28;20037;-72
2021/09/20 01:41:34;;;;;;;7.80;4.68;;;14.90;99.90;;;;;;4177785;28;20029;-72
2021/09/20 01:43:35;;;;;;;6.38;4.22;;;14.90;99.90;;;;;;4185746;28;20123;-72
2021/09/20 01:45:35;;;;;;;6.35;4.75;;;14.90;99.90;;;;;;4179469;28;20037;-73
2021/09/20 01:47:36;;;;;;;6.53;4.50;;;14.80;99.90;;;;;;4174761;28;20045;-72
2021/09/20 01:49:36;;;;;;;5.80;4.70;;;14.80;99.90;;;;;;4172740;28;20037;-72
2021/09/20 01:51:37;;;;;;;5.40;4.10;;;14.80;99.90;;;;;;4170652;28;20120;-72
2021/09/20 01:53:38;;;;;;;5.15;4.07;;;14.80;99.90;;;;;;4156321;28;20030;-72
2021/09/20 01:55:39;;;;;;;6.75;4.45;;;14.70;99.90;;;;;;4174726;28;20037;-72
2021/09/20 01:57:40;;;;;;;6.45;4.38;;;14.80;99.90;;;;;;4175340;28;20037;-72
2021/09/20 01:59:41;;;;;;;6.78;4.88;;;14.70;99.90;;;;;;4176309;28;20075;-72
2021/09/20 02:01:41;;;;;;;5.45;4.15;;;14.70;99.90;;;;;;4175617;28;20033;-72
2021/09/20 02:03:42;;;;;;;7.70;4.28;;;14.70;99.90;;;;;;4177006;28;20063;-72
2021/09/20 02:05:43;;;;;;;6.47;4.32;;;14.70;99.90;;;;;;4175456;28;20037;-72
2021/09/20 02:07:43;;;;;;;6.82;4.50;;;14.70;99.90;;;;;;4175347;28;20041;-72
2021/09/20 02:09:44;;;;;;;6.75;4.47;;;14.70;99.90;;;;;;4177475;28;20044;-72
2021/09/20 02:11:45;;;;;;;7.55;5.03;;;14.70;99.90;;;;;;4177461;28;20108;-72
2021/09/20 02:13:45;;;;;;;6.70;5.10;;;14.70;99.90;;;;;;4177158;28;20734;-72
2021/09/20 02:15:46;;;;;;;6.18;4.60;;;14.70;99.90;;;;;;4176836;28;20051;-72
2021/09/20 02:17:46;;;;;;;6.95;4.53;;;14.60;99.90;;;;;;4175583;28;20643;-72
2021/09/20 02:19:47;;;;;;;7.03;5.15;;;14.60;99.90;;;;;;4176890;28;20041;-72
2021/09/20 02:21:48;;;;;;;6.50;5.13;;;14.50;99.90;;;;;;4176474;28;20113;-72
2021/09/20 02:23:49;;;;;;;6.15;4.53;;;14.60;99.90;;;;;;4175142;28;20424;-72
2021/09/20 02:25:50;;;;;;;6.65;4.90;;;14.50;99.90;;;;;;4175822;28;20086;-72
2021/09/20 02:27:50;;;;;;;6.70;4.93;;;14.50;99.90;;;;;;4176193;28;20041;-72
2021/09/20 02:29:51;;;;;;;6.10;4.50;;;14.50;99.90;;;;;;4176814;28;20029;-72
2021/09/20 02:31:52;;;;;;;7.47;5.00;;;14.50;99.90;;;;;;4176746;28;20033;-73
2021/09/20 02:33:52;;;;;;;7.65;4.95;;;14.50;99.90;;;;;;4177010;28;20040;-72
2021/09/20 02:35:53;;;;;;;8.25;5.22;;;14.40;99.90;;;;;;4176695;28;20029;-72
2021/09/20 02:37:53;;;;;;;7.20;5.50;;;14.40;99.90;;;;;;4176801;28;20036;-72
2021/09/20 02:39:54;;;;;;;7.70;5.55;;;14.30;99.90;;;;;;4176103;28;20033;-72
2021/09/20 02:41:55;;;;;;;7.20;5.35;;;14.30;99.90;;;;;;4174978;28;20044;-72
2021/09/20 02:43:55;;;;;;;7.40;4.85;;;14.30;99.90;;;;;;4175141;28;20366;-72
2021/09/20 02:45:56;;;;;;;7.40;5.43;;;14.20;99.90;;;;;;4175301;28;20029;-72
2021/09/20 02:47:57;;;;;;;8.43;6.38;;;14.20;99.90;;;;;;4174495;28;20075;-72
2021/09/20 02:49:58;;;;;;;8.60;5.53;;;14.10;99.90;;;;;;4174973;28;20053;-72
2021/09/20 02:51:58;;;;;;;6.82;5.53;;;14.00;99.90;;;;;;4176785;28;20087;-72
2021/09/20 02:53:59;;;;;;;8.32;5.72;;;14.00;99.90;;;;;;4176741;28;20427;-72
2021/09/20 02:55:59;;;;;;;8.25;5.80;;;14.00;99.90;;;;;;4175592;28;20159;-72
2021/09/20 02:58:00;;;;;;;6.95;5.35;;;14.00;99.90;;;;;;4176167;28;20033;-72
2021/09/20 03:00:04;;;;;;;10.55;5.53;;;14.00;99.90;;;;;;4174237;28;20124;-72
2021/09/20 03:02:04;;;;;;;8.52;5.05;;;14.00;99.90;;;;;;4176485;28;20155;-72
2021/09/20 03:04:05;;;;;;;9.23;5.72;;;14.00;99.90;;;;;;4174865;28;20096;-72
2021/09/20 03:06:06;;;;;;;7.28;4.93;;;14.00;99.90;;;;;;4175040;28;20033;-72
2021/09/20 03:08:07;;;;;;;10.90;5.68;;;14.00;99.90;;;;;;4173855;28;20087;-72
2021/09/20 03:10:09;;;;;;;6.78;4.97;;;14.10;99.90;;;;;;4173698;28;20041;-72
2021/09/20 03:12:10;;;;;;;8.13;5.80;;;14.10;99.90;;;;;;4176060;28;20056;-72
2021/09/20 03:14:11;;;;;;;7.93;5.90;;;14.10;99.90;;;;;;4176030;28;20434;-72
2021/09/20 03:16:11;;;;;;;7.65;5.03;;;14.10;99.90;;;;;;4176529;28;20071;-73
2021/09/20 03:18:12;;;;;;;9.15;5.28;;;14.10;99.90;;;;;;4176027;28;20206;-72
2021/09/20 03:20:13;;;;;;;7.53;5.22;;;14.10;99.90;;;;;;4175951;28;20519;-72
2021/09/20 03:22:13;;;;;;;8.50;5.65;;;14.10;99.90;;;;;;4171515;28;20102;-72
2021/09/20 03:24:14;;;;;;;8.80;5.93;;;14.10;99.90;;;;;;4175864;28;20404;-72
2021/09/20 03:26:16;;;;;;;7.65;5.63;;;14.00;99.90;;;;;;4174845;28;20056;-72
2021/09/20 03:28:16;;;;;;;7.88;5.85;;;14.00;99.90;;;;;;4174941;28;20410;-72
2021/09/20 03:30:17;;;;;;;7.55;5.78;;;14.00;99.90;;;;;;4173767;28;20032;-72
2021/09/20 03:32:18;;;;;;;7.88;5.72;;;14.00;99.90;;;;;;4173792;28;20480;-72
2021/09/20 03:34:19;;;;;;;7.25;5.25;;;14.00;99.90;;;;;;4173729;28;20029;-72
2021/09/20 03:36:19;;;;;;;9.23;6.45;;;14.00;99.90;;;;;;4175855;28;20029;-72
2021/09/20 03:38:20;;;;;;;9.50;5.65;;;14.00;99.90;;;;;;4175207;28;20679;-72
2021/09/20 03:40:20;;;;;;;8.70;5.32;;;14.00;99.90;;;;;;4175180;28;20037;-72
2021/09/20 03:42:21;;;;;;;7.18;5.63;;;13.90;99.90;;;;;;4175691;28;20043;-72
2021/09/20 03:44:22;;;;;;;10.63;5.93;;;14.00;99.90;;;;;;4175797;28;20427;-72
2021/09/20 03:46:22;;;;;;;6.35;4.82;;;14.00;99.90;;;;;;4173875;28;20025;-72
2021/09/20 03:48:23;;;;;;;10.00;5.55;;;14.00;99.90;;;;;;4174453;28;20045;-72
2021/09/20 03:50:23;;;;;;;9.30;5.43;;;14.00;99.90;;;;;;4173511;28;20040;-72
2021/09/20 03:52:24;;;;;;;7.00;5.57;;;14.00;99.90;;;;;;4170901;28;20082;-72
2021/09/20 03:54:25;;;;;;;7.85;5.40;;;14.00;99.90;;;;;;4175415;28;20022;-72
2021/09/20 03:56:26;;;;;;;7.65;5.72;;;14.00;99.90;;;;;;4172871;28;20033;-72
2021/09/20 03:58:26;;;;;;;7.80;5.40;;;14.00;99.90;;;;;;4175306;28;20098;-72
2021/09/20 04:00:27;;;;;;;8.80;5.10;;;14.00;99.90;;;;;;4172646;28;20026;-72
2021/09/20 04:02:27;;;;;;;8.18;5.50;;;13.90;99.90;;;;;;4173154;28;20334;-72
2021/09/20 04:04:28;;;;;;;9.30;5.97;;;13.90;99.90;;;;;;4174307;28;20021;-72
2021/09/20 04:06:29;;;;;;;6.65;5.40;;;13.90;99.90;;;;;;4173531;28;20043;-73
2021/09/20 04:08:30;;;;;;;7.38;5.50;;;13.90;99.90;;;;;;4171870;28;20033;-73
2021/09/20 04:10:30;;;;;;;8.35;5.60;;;13.90;99.90;;;;;;4156627;28;20021;-73
2021/09/20 04:12:31;;;;;;;9.38;5.70;;;13.90;99.90;;;;;;4174939;28;20095;-73
2021/09/20 04:14:32;;;;;;;8.50;5.78;;;13.90;99.90;;;;;;4172097;28;20041;-73
2021/09/20 04:16:32;;;;;;;7.90;5.65;;;13.80;99.90;;;;;;4171258;28;20037;-73
2021/09/20 04:18:33;;;;;;;7.88;5.93;;;13.90;99.90;;;;;;4171529;28;20025;-73
2021/09/20 04:20:34;;;;;;;8.60;6.03;;;13.90;99.90;;;;;;4151520;28;20096;-73
2021/09/20 04:22:34;;;;;;;9.02;6.10;;;13.80;99.90;;;;;;4172319;28;20032;-73
2021/09/20 04:24:35;;;;;;;7.78;5.75;;;13.80;99.90;;;;;;4177378;28;20112;-73
2021/09/20 04:26:36;;;;;;;7.78;5.78;;;13.80;99.90;;;;;;4177563;28;20052;-73
2021/09/20 04:28:36;;;;;;;7.82;5.50;;;13.80;99.90;;;;;;4175920;28;20068;-73
2021/09/20 04:30:37;;;;;;;7.40;5.13;;;13.80;99.90;;;;;;4183503;28;20063;-73
2021/09/20 04:32:38;;;;;;;8.98;4.90;;;13.80;99.90;;;;;;4178454;28;20171;-73
2021/09/20 04:34:38;;;;;;;9.10;6.13;;;13.80;99.90;;;;;;4174042;28;20037;-73
2021/09/20 04:36:39;;;;;;;6.72;5.28;;;13.80;99.90;;;;;;4178662;28;20037;-73
2021/09/20 04:38:39;;;;;;;6.95;5.30;;;13.80;99.90;;;;;;4183675;28;20120;-73
2021/09/20 04:40:41;;;;;;;7.57;5.93;;;13.70;99.90;;;;;;4179745;28;20123;-73
2021/09/20 04:42:41;;;;;;;7.72;5.43;;;13.80;99.90;;;;;;4169899;28;20066;-73
2021/09/20 04:44:42;;;;;;;8.20;5.82;;;13.70;99.90;;;;;;4177363;28;20091;-73
2021/09/20 04:46:43;;;;;;;8.52;5.63;;;13.70;99.90;;;;;;4175518;28;20120;-72
2021/09/20 04:48:43;;;;;;;7.82;5.53;;;13.70;99.90;;;;;;4176335;28;20124;-73
2021/09/20 04:50:46;;;;;;;8.20;5.47;;;13.60;99.90;;;;;;4175017;28;20033;-73
2021/09/20 04:52:49;;;;;;;;;;;13.70;99.90;;;;;;4184589;28;20494;-74
2021/09/20 04:54:49;;;;;;;9.07;6.20;;;13.60;99.90;;;;;;4179700;28;19970;-74
2021/09/20 04:56:50;;;;;;;8.45;5.57;;;13.60;99.90;;;;;;4177950;28;20909;-75
2021/09/20 04:58:51;;;;;;;7.57;5.57;;;13.60;99.90;;;;;;4178727;28;20045;-77
2021/09/20 05:00:54;;;;;;;9.93;5.60;;;13.60;99.90;;;;;;4167494;28;20520;-77
2021/09/20 05:02:54;;;;;;;8.52;5.80;;;13.60;99.90;;;;;;4170372;28;20078;-77
2021/09/20 05:04:55;;;;;;;7.40;5.60;;;13.60;99.90;;;;;;4165936;28;20060;-77
2021/09/20 05:06:59;;;;;;;8.18;5.75;;;13.60;99.90;;;;;;4158469;28;20076;-77
2021/09/20 05:08:59;;;;;;;9.13;5.82;;;13.60;99.90;;;;;;4171173;28;20094;-76
2021/09/20 05:11:00;;;;;;;8.90;5.78;;;13.50;99.90;;;;;;4168062;28;20065;-77
2021/09/20 05:13:01;;;;;;;8.43;5.28;;;13.50;99.90;;;;;;4171414;28;20033;-77
2021/09/20 05:15:04;;;;;;;9.23;6.18;;;13.50;99.90;;;;;;4172130;28;20087;-77
2021/09/20 05:17:05;;;;;;;8.70;5.88;;;13.50;99.90;;;;;;4172259;28;20037;-77
2021/09/20 05:19:06;;;;;;;8.80;5.88;;;13.50;99.90;;;;;;4170710;28;20156;-76
2021/09/20 05:21:08;;;;;;;7.72;6.00;;;13.40;99.90;;;;;;4172755;28;20041;-76
2021/09/20 05:23:09;;;;;;;7.07;5.70;;;13.40;99.90;;;;;;4144222;28;22197;-77
2021/09/20 05:25:10;;;;;;;7.45;5.78;;;13.40;99.90;;;;;;4170290;28;20043;-76
2021/09/20 05:27:10;;;;;;;8.05;5.45;;;13.40;99.90;;;;;;4167940;28;20162;-76
2021/09/20 05:29:12;;;;;;;7.88;5.95;;;13.40;99.90;;;;;;4169250;28;20033;-76
2021/09/20 05:31:16;;;;;;;7.57;5.43;;;13.40;99.90;;;;;;4172452;28;20033;-77
2021/09/20 05:33:19;;;;;;;8.95;5.97;;;13.40;99.90;;;;;;4175303;28;20056;-77
2021/09/20 05:35:19;;;;;;;6.82;5.10;;;13.40;99.90;;;;;;4174361;28;20123;-77
2021/09/20 05:37:20;;;;;;;7.72;6.15;;;13.40;99.90;;;;;;4172668;28;20068;-77
2021/09/20 05:39:21;;;;;;;9.80;5.82;;;13.40;99.90;;;;;;4153991;28;20572;-76
2021/09/20 05:41:22;;;;;;;7.82;5.78;;;13.40;99.90;;;;;;4172802;28;20507;-76
2021/09/20 05:43:24;;;;;;;8.77;6.10;;;13.40;99.90;;;;;;4170331;28;20429;-77
2021/09/20 05:45:25;;;;;;;8.00;5.88;;;13.40;99.90;;;;;;4168792;28;20509;-77
2021/09/20 05:47:26;;;;;;;8.40;5.45;;;13.40;99.90;;;;;;4172056;28;20363;-77
2021/09/20 05:49:26;;;;;;;6.43;5.38;;;13.40;99.90;;;;;;4152692;28;20041;-77
2021/09/20 05:51:27;;;;;;;9.60;5.88;;;13.40;99.90;;;;;;4172089;28;20130;-76
2021/09/20 05:53:29;;;;;;;8.02;5.95;;;13.40;99.90;;;;;;4168311;28;20071;-77
2021/09/20 05:55:29;;;;;;;7.40;5.72;;;13.50;99.90;;;;;;4152343;28;20438;-77
2021/09/20 05:57:30;;;;;;;7.18;5.40;;;13.50;99.90;;;;;;4168947;28;20040;-77
2021/09/20 05:59:31;;;;;;;6.85;5.07;;;13.50;99.90;;;;;;4170825;28;20029;-77
2021/09/20 06:01:32;;;;;;;7.78;5.53;;;13.50;99.90;;;;;;4169256;28;20052;-77
2021/09/20 06:03:33;;;;;;;9.93;6.25;;;13.60;99.90;;;;;;4171825;28;20740;-77
2021/09/20 06:05:38;;;;;;;7.53;5.90;;;13.60;99.90;;;;;;4152887;28;20034;-77
2021/09/20 06:07:38;;;;;;;8.27;5.80;;;13.60;99.90;;;;;;4169987;28;20044;-77
2021/09/20 06:09:39;;;;;;;7.97;5.35;;;13.70;99.90;;;;;;4170904;28;20051;-77
2021/09/20 06:11:39;;;;;;;7.32;5.68;;;13.70;99.90;;;;;;4172362;28;20040;-77
2021/09/20 06:13:40;;;;;;;7.63;5.85;;;13.70;99.90;;;;;;4172929;28;20041;-77
2021/09/20 06:15:41;;;;;;;7.35;5.85;;;13.70;99.90;;;;;;4151121;28;20080;-73
2021/09/20 06:17:42;;;;;;;6.75;5.00;;;13.80;99.90;;;;;;4169204;28;20037;-73
2021/09/20 06:19:43;;;;;;;8.13;5.70;;;13.80;99.90;;;;;;4169970;28;20556;-72
2021/09/20 06:21:43;;;;;;;7.45;5.40;;;13.80;99.90;;;;;;4171775;28;20065;-73
2021/09/20 06:23:44;;;;;;;7.95;5.55;;;13.80;99.90;;;;;;4174936;28;20044;-73
2021/09/20 06:25:45;;;;;;;6.97;5.45;;;13.90;99.90;;;;;;4174291;28;20059;-73
2021/09/20 06:27:45;;;;;;;6.65;5.35;;;13.90;99.90;;;;;;4170312;28;20045;-73
2021/09/20 06:29:46;;;;;;;8.43;5.97;;;13.90;99.90;;;;;;4170356;28;20045;-73
2021/09/20 06:31:47;;;;;;;8.48;5.43;;;13.90;99.90;;;;;;4171043;28;20747;-72
2021/09/20 06:33:49;;;;;;;8.48;6.15;;;14.00;99.90;;;;;;4170292;28;20130;-73
2021/09/20 06:35:55;;;;;;;8.90;6.25;;;14.10;99.90;;;;;;4156073;28;20045;-73
2021/09/20 06:37:55;;;;;;;9.10;6.03;;;14.10;99.90;;;;;;4169804;28;20037;-73
2021/09/20 06:39:56;;;;;;;9.70;6.82;;;14.10;99.90;;;;;;4157120;28;20033;-73
2021/09/20 06:41:57;;;;;;;12.80;7.10;;;14.10;99.90;;;;;;4156283;28;20036;-73
2021/09/20 06:43:57;;;;;;;10.10;6.57;;;14.10;99.90;;;;;;4153597;28;20037;-73
2021/09/20 06:45:58;;;;;;;11.65;7.20;;;14.20;99.90;;;;;;4155149;28;20859;-72
2021/09/20 06:48:01;;;;;;;8.60;6.55;;;14.10;99.90;;;;;;4155354;28;20056;-73
2021/09/20 06:50:03;;;;;;;13.10;7.05;;;14.10;99.90;;;;;;4154335;28;20120;-73
2021/09/20 06:52:04;;;;;;;9.93;6.93;;;14.10;99.90;;;;;;4153238;28;20037;-73
2021/09/20 06:54:04;;;;;;;10.57;7.38;;;14.00;99.90;;;;;;4137917;28;20490;-73
2021/09/20 06:56:05;;;;;;;11.20;7.55;;;14.00;99.90;;;;;;4150667;28;20113;-73
2021/09/20 06:58:06;;;;;;;13.75;7.40;;;14.00;99.90;;;;;;4153319;28;20042;-72
2021/09/20 07:00:08;;;;;;;13.02;8.25;;;14.00;99.90;;;;;;4149602;28;20549;-72
2021/09/20 07:02:09;;;;;;;;;;;13.90;99.90;;;;;;4155275;28;20041;-73
2021/09/20 07:04:10;;;;;;;9.25;5.90;;;13.90;99.90;;;;;;4154881;28;19917;-73
2021/09/20 07:06:10;;;;;;;11.05;7.07;;;13.90;99.90;;;;;;4155426;28;20041;-71
2021/09/20 07:08:11;;;;;;;10.77;7.57;;;13.90;99.90;;;;;;4148302;28;20037;-71
2021/09/20 07:10:14;;;;;;;10.40;7.05;;;13.90;99.90;;;;;;4150509;28;20068;-71
2021/09/20 07:12:15;;;;;;;13.25;7.30;;;13.90;99.90;;;;;;4147746;28;20378;-71
2021/09/20 07:14:16;;;;;;;11.88;6.88;;;13.90;99.90;;;;;;4148924;28;20069;-71
2021/09/20 07:16:17;;;;;;;8.07;6.38;;;13.90;99.90;;;;;;4152287;28;20378;-71
2021/09/20 07:18:18;;;;;;;10.77;7.05;;;14.00;99.90;;;;;;4168904;28;20699;-71
2021/09/20 07:20:19;;;;;;;14.23;7.97;;;14.00;99.90;;;;;;4169174;28;20152;-71
2021/09/20 07:22:19;;;;;;;10.77;6.97;;;14.00;99.90;;;;;;4168078;28;20190;-71
2021/09/20 07:24:20;;;;;;;11.20;7.38;;;14.00;99.90;;;;;;4168933;28;20041;-71
2021/09/20 07:26:22;;;;;;;9.93;7.40;;;14.00;99.90;;;;;;4171221;28;20037;-74
2021/09/20 07:28:22;;;;;;;10.27;7.00;;;14.00;99.90;;;;;;4170314;28;20059;-72
2021/09/20 07:30:23;;;;;;;10.93;7.60;;;14.00;99.90;;;;;;4165407;28;20119;-72
2021/09/20 07:32:24;;;;;;;8.35;6.30;;;13.90;99.90;;;;;;4166383;28;20045;-73
2021/09/20 07:34:24;;;;;;;10.15;6.22;;;14.00;99.90;;;;;;4165969;28;20175;-72
2021/09/20 07:36:25;;;;;;;11.23;6.50;;;14.00;99.90;;;;;;4164756;28;20504;-72
2021/09/20 07:38:26;;;;;;;10.00;6.45;;;14.00;99.90;;;;;;4169578;28;20500;-72
2021/09/20 07:40:28;;;;;;;9.25;6.53;;;14.10;99.90;;;;;;4163986;28;20044;-72
2021/09/20 07:42:29;;;;;;;;;;;14.10;99.90;;;;;;4167499;28;20041;-72
2021/09/20 07:44:29;;;;;;;11.05;7.03;;;14.00;99.90;;;;;;4168380;28;19927;-72
2021/09/20 07:46:31;;;;;;;9.15;6.70;;;14.00;99.90;;;;;;4164798;28;20508;-71
2021/09/20 07:48:32;;;;;;;8.80;6.55;;;14.10;99.90;;;;;;4168475;28;20391;-72
2021/09/20 07:50:33;;;;;;;11.93;6.68;;;14.10;99.90;;;;;;4165515;28;20056;-72
2021/09/20 07:52:33;;;;;;;9.02;6.70;;;14.10;99.90;;;;;;4164392;28;20053;-72
2021/09/20 07:54:34;;;;;;;11.80;6.78;;;14.10;99.90;;;;;;4151882;28;20030;-72
2021/09/20 07:56:35;;;;;;;9.27;6.40;;;14.20;99.90;;;;;;4160132;28;20121;-72
2021/09/20 07:58:36;;;;;;;10.60;6.45;;;14.20;99.90;;;;;;4149465;28;20034;-72
2021/09/20 08:00:40;;;;;;;9.07;6.63;;;14.20;99.90;;;;;;4151277;28;20227;-71
2021/09/20 08:02:41;;;;;;;9.05;6.93;;;14.20;99.90;;;;;;4150552;28;20116;-72
2021/09/20 08:04:42;;;;;;;9.20;6.30;;;14.30;99.90;;;;;;4145229;28;20037;-72
2021/09/20 08:06:43;;;;;;;8.68;6.70;;;14.30;99.90;;;;;;4142930;28;20437;-72
2021/09/20 08:08:44;;;;;;;10.73;7.43;;;14.30;99.90;;;;;;4147283;28;20025;-72
2021/09/20 08:10:45;;;;;;;9.70;6.88;;;14.40;99.90;;;;;;4150221;28;20037;-71
2021/09/20 08:12:45;;;;;;;9.07;6.40;;;14.40;99.90;;;;;;4148102;28;20030;-72
2021/09/20 08:14:46;;;;;;;8.25;6.30;;;14.50;99.90;;;;;;4138361;28;20022;-72
2021/09/20 08:16:47;;;;;;;9.23;6.78;;;14.50;99.90;;;;;;4143736;28;20037;-72
2021/09/20 08:18:48;;;;;;;11.10;6.95;;;14.60;99.90;;;;;;4146028;28;20040;-72
2021/09/20 08:20:49;;;;;;;9.07;6.32;;;14.60;99.90;;;;;;4148014;28;21077;-72
2021/09/20 08:22:50;;;;;;;10.38;7.30;;;14.70;99.90;;;;;;4149182;28;20034;-72
2021/09/20 08:24:51;;;;;;;10.68;7.32;;;14.70;99.90;;;;;;4138980;28;20069;-72
2021/09/20 08:26:52;;;;;;;8.10;5.95;;;14.80;99.90;;;;;;4146382;28;20034;-72
2021/09/20 08:28:53;;;;;;;9.13;5.93;;;14.80;99.90;;;;;;4150713;28;21210;-73
2021/09/20 08:30:53;;;;;;;8.50;6.18;;;14.90;99.90;;;;;;4152270;28;24492;-72
2021/09/20 08:32:54;;;;;;;9.93;6.75;;;14.90;99.90;;;;;;4151975;28;20895;-72
2021/09/20 08:34:54;;;;;;;8.50;6.43;;;14.90;99.90;;;;;;4152281;28;20087;-72
2021/09/20 08:36:55;;;;;;;8.98;5.43;;;15.00;99.90;;;;;;4153021;28;20056;-72
2021/09/20 08:38:56;;;;;;;9.75;6.32;;;15.10;99.90;;;;;;4151357;28;20103;-72
2021/09/20 08:40:57;;;;;;;8.48;5.63;;;15.00;99.90;;;;;;4151092;28;21215;-72
2021/09/20 08:42:58;;;;;;;9.52;6.63;;;15.10;99.90;;;;;;4151031;28;20049;-72
2021/09/20 08:44:59;;;;;;;8.50;5.72;;;15.10;99.90;;;;;;4149629;28;20037;-72
2021/09/20 08:47:00;;;;;;;11.13;5.88;;;15.10;99.90;;;;;;4150731;28;20919;-72
2021/09/20 08:49:01;;;;;;;7.38;5.75;;;15.10;99.90;;;;;;4150654;28;20034;-72
2021/09/20 08:51:02;;;;;;;10.27;6.72;;;15.20;99.90;;;;;;4146798;28;20561;-71
2021/09/20 08:53:04;;;;;;;8.93;5.80;;;15.10;99.90;;;;;;4149023;28;20055;-72
2021/09/20 08:55:06;;;;;;;8.95;6.32;;;15.10;99.90;;;;;;4148944;28;20388;-72
2021/09/20 08:57:08;;;;;;;8.27;6.05;;;15.10;99.90;;;;;;4147966;28;20540;-72
2021/09/20 08:59:11;;;;;;;10.07;6.85;;;15.20;99.90;;;;;;4148475;28;20045;-72
2021/09/20 09:01:12;;;;;;;8.60;6.65;;;15.10;99.90;;;;;;4148699;28;20053;-72
2021/09/20 09:03:19;;;;;;;7.43;5.15;;;15.10;99.90;;;;;;4147466;28;20060;-72
2021/09/20 09:05:25;;;;;;;9.05;6.28;;;15.20;99.90;;;;;;4146081;28;20037;-72
2021/09/20 09:07:25;;;;;;;8.10;6.03;;;15.20;99.90;;;;;;4150965;28;20128;-73
2021/09/20 09:09:31;;;;;;;9.00;6.53;;;15.20;99.90;;;;;;4150479;28;20501;-72
2021/09/20 09:11:32;;;;;;;8.07;6.10;;;15.20;99.90;;;;;;4150853;28;20029;-72
2021/09/20 09:13:37;;;;;;;10.00;5.95;;;15.30;99.90;;;;;;4150276;28;20576;-72
2021/09/20 09:15:46;;;;;;;8.90;5.80;;;15.40;99.90;;;;;;4152817;28;20121;-72
2021/09/20 09:17:49;;;;;;;7.30;5.45;;;15.40;99.90;;;;;;4153935;28;20128;-71
2021/09/20 09:19:58;;;;;;;7.75;4.97;;;15.50;99.90;;;;;;4154391;28;20094;-72
2021/09/20 09:21:58;;;;;;;8.88;5.40;;;15.60;99.90;;;;;;4155397;28;20548;-72
2021/09/20 09:24:14;;;;;;;7.25;5.22;;;15.60;99.90;;;;;;4152970;28;20159;-71
2021/09/20 09:26:21;;;;;;;10.20;4.63;;;15.70;99.90;;;;;;4170539;28;20531;-72
2021/09/20 09:28:25;;;;;;;6.45;5.15;;;15.80;99.90;;;;;;4171939;28;20114;-72
2021/09/20 09:30:39;;;;;;;7.20;4.75;;;15.80;99.90;;;;;;4172109;28;20041;-72
2021/09/20 09:32:41;;;;;;;7.55;4.65;;;15.90;99.90;;;;;;4172298;28;20086;-71
2021/09/20 09:34:53;;;;;;;11.77;6.13;;;16.00;99.90;;;;;;4170593;28;20031;-72
2021/09/20 09:37:09;;;;;;;6.80;5.15;;;16.10;99.90;;;;;;4173242;28;21033;-72
2021/09/20 09:39:10;;;;;;;6.82;5.07;;;16.20;99.90;;;;;;4172955;28;20558;-72
2021/09/20 09:41:10;;;;;;;9.32;5.63;;;16.20;99.90;;;;;;4170892;28;20040;-71
2021/09/20 09:43:11;;;;;;;5.93;4.70;;;16.30;99.90;;;;;;4171698;28;20037;-72
2021/09/20 09:45:33;;;;;;;8.70;5.15;;;16.40;99.90;;;;;;4171468;28;20110;-72
2021/09/20 09:47:34;;;;;;;6.93;4.75;;;16.40;99.90;;;;;;4172090;28;20037;-72
2021/09/20 09:49:34;;;;;;;12.20;5.63;;;16.50;99.90;;;;;;4170405;28;20044;-71
2021/09/20 09:51:53;;;;;;;8.07;4.65;;;16.50;99.90;;;;;;4153259;28;20112;-72
2021/09/20 09:54:07;;;;;;;6.80;4.50;;;16.60;99.90;;;;;;4172381;28;20150;-72
2021/09/20 09:56:14;;;;;;;5.30;4.07;;;16.60;99.90;;;;;;4172681;28;20507;-71
2021/09/20 09:58:16;;;;;;;6.50;4.53;;;16.70;99.90;;;;;;4166150;28;20516;-72
2021/09/20 10:00:19;;;;;;;8.50;5.10;;;16.70;99.90;;;;;;4171478;28;21075;-72
2021/09/20 10:02:25;;;;;;;8.10;4.50;;;16.70;99.90;;;;;;4172220;28;20048;-72
2021/09/20 10:04:30;;;;;;;7.50;4.65;;;16.80;99.90;;;;;;4171805;28;20053;-72
2021/09/20 10:06:54;;;;;;;9.38;5.10;;;16.70;99.90;;;;;;4171195;28;20090;-72
2021/09/20 10:08:55;;;;;;;7.85;4.10;;;16.80;99.90;;;;;;4167904;28;20040;-72
2021/09/20 10:10:56;;;;;;;8.05;3.85;;;16.80;99.90;;;;;;4172196;28;20404;-72
2021/09/20 10:12:59;;;;;;;6.35;4.03;;;16.80;99.90;;;;;;4150088;28;20048;-72
2021/09/20 10:15:02;;;;;;;5.13;3.80;;;16.90;99.90;;;;;;4171257;28;20033;-72
2021/09/20 10:17:03;;;;;;;6.70;4.55;;;16.90;99.90;;;;;;4170863;28;20037;-72
2021/09/20 10:19:05;;;;;;;5.43;3.88;;;17.00;99.90;;;;;;4171192;28;20439;-72
2021/09/20 10:21:06;;;;;;;6.70;3.70;;;17.00;99.90;;;;;;4172124;28;20035;-72
2021/09/20 10:23:07;;;;;;;5.55;4.10;;;16.90;99.90;;;;;;4169808;28;20049;-72
2021/09/20 10:25:10;;;;;;;5.38;3.97;;;16.90;99.90;;;;;;4169657;28;20094;-72
2021/09/20 10:27:13;;;;;;;4.97;3.55;;;16.90;99.90;;;;;;4165261;28;20041;-72
2021/09/20 10:29:17;;;;;;;5.57;3.90;;;16.90;99.90;;;;;;4172195;28;20044;-72
2021/09/20 10:31:19;;;;;;;5.22;3.92;;;17.00;99.90;;;;;;4167363;28;20033;-71